sensor_id;sensor_type;location;lat;lon;timestamp;pressure;altitude;pressure_sealevel;temperature;humidity
6427;BME280;3246;42.664;23.308;2023-08-21T00:01:37;120715.88;;;-142.62;46.36
6427;BME280;3246;42.664;23.308;2023-08-21T00:04:06;120715.88;;;-142.62;45.55
6427;BME280;3246;42.664;23.308;2023-08-21T00:06:32;120715.88;;;-142.62;45.61
6427;BME280;3246;42.664;23.308;2023-08-21T00:09:00;120715.88;;;-142.62;45.33
6427;BME280;3246;42.664;23.308;2023-08-21T00:11:27;120715.88;;;-142.62;45.75
6427;BME280;3246;42.664;23.308;2023-08-21T00:13:54;120715.88;;;-142.62;45.75
6427;BME280;3246;42.664;23.308;2023-08-21T00:16:21;120715.88;;;-142.62;46.70
6427;BME280;3246;42.664;23.308;2023-08-21T00:18:47;120715.88;;;-142.62;46.58
6427;BME280;3246;42.664;23.308;2023-08-21T00:21:16;120715.88;;;-142.62;46.65
6427;BME280;3246;42.664;23.308;2023-08-21T00:23:42;120715.88;;;-142.62;46.47
6427;BME280;3246;42.664;23.308;2023-08-21T00:26:09;120715.88;;;-142.62;47.03
6427;BME280;3246;42.664;23.308;2023-08-21T00:28:36;120715.88;;;-142.62;47.29
6427;BME280;3246;42.664;23.308;2023-08-21T00:31:03;120715.88;;;-142.62;46.95
6427;BME280;3246;42.664;23.308;2023-08-21T00:33:30;120715.88;;;-142.62;47.77
6427;BME280;3246;42.664;23.308;2023-08-21T00:35:57;120715.88;;;-142.62;47.63
6427;BME280;3246;42.664;23.308;2023-08-21T00:38:25;120715.88;;;-142.62;47.66
6427;BME280;3246;42.664;23.308;2023-08-21T00:40:52;120715.88;;;-142.62;47.64
6427;BME280;3246;42.664;23.308;2023-08-21T00:43:20;120715.88;;;-142.62;47.61
6427;BME280;3246;42.664;23.308;2023-08-21T00:45:48;120715.88;;;-142.62;48.09
6427;BME280;3246;42.664;23.308;2023-08-21T00:48:16;120715.88;;;-142.62;48.18
6427;BME280;3246;42.664;23.308;2023-08-21T00:50:44;120715.88;;;-142.62;48.40
6427;BME280;3246;42.664;23.308;2023-08-21T00:53:11;120715.88;;;-142.62;48.38
6427;BME280;3246;42.664;23.308;2023-08-21T00:55:40;120715.88;;;-142.62;48.12
6427;BME280;3246;42.664;23.308;2023-08-21T00:58:09;120715.88;;;-142.62;47.80
6427;BME280;3246;42.664;23.308;2023-08-21T01:00:37;120715.88;;;-142.62;48.29
6427;BME280;3246;42.664;23.308;2023-08-21T01:03:04;120715.88;;;-142.62;47.59
6427;BME280;3246;42.664;23.308;2023-08-21T01:05:31;120715.88;;;-142.62;46.87
6427;BME280;3246;42.664;23.308;2023-08-21T01:08:01;120715.88;;;-142.62;47.05
6427;BME280;3246;42.664;23.308;2023-08-21T01:10:38;120715.88;;;-142.62;47.56
6427;BME280;3246;42.664;23.308;2023-08-21T01:13:11;120715.88;;;-142.62;47.80
6427;BME280;3246;42.664;23.308;2023-08-21T01:15:43;120715.88;;;-142.62;48.02
6427;BME280;3246;42.664;23.308;2023-08-21T01:18:11;120715.88;;;-142.62;48.83
6427;BME280;3246;42.664;23.308;2023-08-21T01:20:39;120715.88;;;-142.62;48.26
6427;BME280;3246;42.664;23.308;2023-08-21T01:23:07;120715.88;;;-142.62;48.30
6427;BME280;3246;42.664;23.308;2023-08-21T01:25:35;120715.88;;;-142.62;49.14
6427;BME280;3246;42.664;23.308;2023-08-21T01:28:03;120715.88;;;-142.62;48.98
6427;BME280;3246;42.664;23.308;2023-08-21T01:30:32;120715.88;;;-142.62;48.73
6427;BME280;3246;42.664;23.308;2023-08-21T01:33:02;120715.88;;;-142.62;49.18
6427;BME280;3246;42.664;23.308;2023-08-21T01:35:33;120715.88;;;-142.62;50.21
6427;BME280;3246;42.664;23.308;2023-08-21T01:38:01;120715.88;;;-142.62;49.49
6427;BME280;3246;42.664;23.308;2023-08-21T01:40:28;120715.88;;;-142.62;50.39
6427;BME280;3246;42.664;23.308;2023-08-21T01:42:56;120715.88;;;-142.62;50.11
6427;BME280;3246;42.664;23.308;2023-08-21T01:45:23;120715.88;;;-142.62;50.29
6427;BME280;3246;42.664;23.308;2023-08-21T01:47:50;120715.88;;;-142.62;50.31
6427;BME280;3246;42.664;23.308;2023-08-21T01:50:17;120715.88;;;-142.62;50.31
6427;BME280;3246;42.664;23.308;2023-08-21T01:52:44;120715.88;;;-142.62;50.02
6427;BME280;3246;42.664;23.308;2023-08-21T01:55:11;120715.88;;;-142.62;49.99
6427;BME280;3246;42.664;23.308;2023-08-21T01:57:37;120715.88;;;-142.62;50.22
6427;BME280;3246;42.664;23.308;2023-08-21T02:00:07;120715.88;;;-142.62;50.40
6427;BME280;3246;42.664;23.308;2023-08-21T02:02:34;120715.88;;;-142.62;50.67
6427;BME280;3246;42.664;23.308;2023-08-21T02:05:01;120715.88;;;-142.62;51.31
6427;BME280;3246;42.664;23.308;2023-08-21T02:07:29;120715.88;;;-142.62;51.20
6427;BME280;3246;42.664;23.308;2023-08-21T02:09:56;120715.88;;;-142.62;50.82
6427;BME280;3246;42.664;23.308;2023-08-21T02:12:22;120715.88;;;-142.62;50.78
6427;BME280;3246;42.664;23.308;2023-08-21T02:14:49;120715.88;;;-142.62;50.84
6427;BME280;3246;42.664;23.308;2023-08-21T02:17:17;120715.88;;;-142.62;50.83
6427;BME280;3246;42.664;23.308;2023-08-21T02:19:44;120715.88;;;-142.62;51.38
6427;BME280;3246;42.664;23.308;2023-08-21T02:22:11;120715.88;;;-142.62;51.52
6427;BME280;3246;42.664;23.308;2023-08-21T02:24:37;120715.88;;;-142.62;51.54
6427;BME280;3246;42.664;23.308;2023-08-21T02:27:05;120715.88;;;-142.62;51.17
6427;BME280;3246;42.664;23.308;2023-08-21T02:29:31;120715.88;;;-142.62;51.37
6427;BME280;3246;42.664;23.308;2023-08-21T02:31:58;120715.88;;;-142.62;51.28
6427;BME280;3246;42.664;23.308;2023-08-21T02:34:26;120715.88;;;-142.62;51.41
6427;BME280;3246;42.664;23.308;2023-08-21T02:36:53;120715.88;;;-142.62;51.02
6427;BME280;3246;42.664;23.308;2023-08-21T02:39:20;120715.88;;;-142.62;51.26
6427;BME280;3246;42.664;23.308;2023-08-21T02:41:47;120715.88;;;-142.62;51.26
6427;BME280;3246;42.664;23.308;2023-08-21T02:44:13;120715.88;;;-142.62;51.22
6427;BME280;3246;42.664;23.308;2023-08-21T02:46:40;120715.88;;;-142.62;51.06
6427;BME280;3246;42.664;23.308;2023-08-21T02:49:07;120715.88;;;-142.62;51.09
6427;BME280;3246;42.664;23.308;2023-08-21T02:51:35;120715.88;;;-142.62;50.86
6427;BME280;3246;42.664;23.308;2023-08-21T02:54:02;120715.88;;;-142.62;51.07
6427;BME280;3246;42.664;23.308;2023-08-21T02:56:29;120715.88;;;-142.62;51.10
6427;BME280;3246;42.664;23.308;2023-08-21T02:58:55;120715.88;;;-142.62;51.10
6427;BME280;3246;42.664;23.308;2023-08-21T03:01:22;120715.88;;;-142.62;51.01
6427;BME280;3246;42.664;23.308;2023-08-21T03:03:49;120715.88;;;-142.62;51.12
6427;BME280;3246;42.664;23.308;2023-08-21T03:06:16;120715.88;;;-142.62;51.41
6427;BME280;3246;42.664;23.308;2023-08-21T03:08:44;120715.88;;;-142.62;51.78
6427;BME280;3246;42.664;23.308;2023-08-21T03:11:11;120715.88;;;-142.62;51.96
6427;BME280;3246;42.664;23.308;2023-08-21T03:13:38;120715.88;;;-142.62;51.85
6427;BME280;3246;42.664;23.308;2023-08-21T03:16:04;120715.88;;;-142.62;51.74
6427;BME280;3246;42.664;23.308;2023-08-21T03:18:32;120715.88;;;-142.62;51.68
6427;BME280;3246;42.664;23.308;2023-08-21T03:20:59;120715.88;;;-142.62;51.48
6427;BME280;3246;42.664;23.308;2023-08-21T03:23:25;120715.88;;;-142.62;52.05
6427;BME280;3246;42.664;23.308;2023-08-21T03:25:53;120715.88;;;-142.62;51.84
6427;BME280;3246;42.664;23.308;2023-08-21T03:28:20;120715.88;;;-142.62;52.42
6427;BME280;3246;42.664;23.308;2023-08-21T03:30:47;120715.88;;;-142.62;52.20
6427;BME280;3246;42.664;23.308;2023-08-21T03:33:14;120715.88;;;-142.62;52.81
6427;BME280;3246;42.664;23.308;2023-08-21T03:35:40;120715.88;;;-142.62;52.54
6427;BME280;3246;42.664;23.308;2023-08-21T03:38:07;120715.88;;;-142.62;52.69
6427;BME280;3246;42.664;23.308;2023-08-21T03:40:34;120715.88;;;-142.62;53.12
6427;BME280;3246;42.664;23.308;2023-08-21T03:43:02;120715.88;;;-142.62;53.29
6427;BME280;3246;42.664;23.308;2023-08-21T03:45:29;120715.88;;;-142.62;53.36
6427;BME280;3246;42.664;23.308;2023-08-21T03:47:56;120715.88;;;-142.62;53.61
6427;BME280;3246;42.664;23.308;2023-08-21T03:50:23;120715.88;;;-142.62;53.82
6427;BME280;3246;42.664;23.308;2023-08-21T03:52:49;120715.88;;;-142.62;53.47
6427;BME280;3246;42.664;23.308;2023-08-21T03:55:16;120715.88;;;-142.62;53.65
6427;BME280;3246;42.664;23.308;2023-08-21T03:57:43;120715.88;;;-142.62;53.68
6427;BME280;3246;42.664;23.308;2023-08-21T04:00:12;120715.88;;;-142.62;53.74
6427;BME280;3246;42.664;23.308;2023-08-21T04:02:39;120715.88;;;-142.62;53.54
6427;BME280;3246;42.664;23.308;2023-08-21T04:05:06;120715.88;;;-142.62;53.60
6427;BME280;3246;42.664;23.308;2023-08-21T04:07:33;120715.88;;;-142.62;53.89
6427;BME280;3246;42.664;23.308;2023-08-21T04:10:00;120715.88;;;-142.62;54.05
6427;BME280;3246;42.664;23.308;2023-08-21T04:12:27;120715.88;;;-142.62;54.12
6427;BME280;3246;42.664;23.308;2023-08-21T04:14:53;120715.88;;;-142.62;54.63
6427;BME280;3246;42.664;23.308;2023-08-21T04:17:22;120715.88;;;-142.62;54.91
6427;BME280;3246;42.664;23.308;2023-08-21T04:19:49;120715.88;;;-142.62;54.65
6427;BME280;3246;42.664;23.308;2023-08-21T04:22:16;120715.88;;;-142.62;54.78
6427;BME280;3246;42.664;23.308;2023-08-21T04:24:43;120715.88;;;-142.62;55.28
6427;BME280;3246;42.664;23.308;2023-08-21T04:27:09;120715.88;;;-142.62;54.78
6427;BME280;3246;42.664;23.308;2023-08-21T04:29:37;120715.88;;;-142.62;54.11
6427;BME280;3246;42.664;23.308;2023-08-21T04:32:05;120715.88;;;-142.62;54.34
6427;BME280;3246;42.664;23.308;2023-08-21T04:34:33;120715.88;;;-142.62;55.09
6427;BME280;3246;42.664;23.308;2023-08-21T04:37:00;120715.88;;;-142.62;55.26
6427;BME280;3246;42.664;23.308;2023-08-21T04:39:26;120715.88;;;-142.62;55.66
6427;BME280;3246;42.664;23.308;2023-08-21T04:41:53;120715.88;;;-142.62;56.61
6427;BME280;3246;42.664;23.308;2023-08-21T04:44:20;120715.88;;;-142.62;55.77
6427;BME280;3246;42.664;23.308;2023-08-21T04:46:48;120715.88;;;-142.62;55.75
6427;BME280;3246;42.664;23.308;2023-08-21T04:49:15;120715.88;;;-142.62;55.71
6427;BME280;3246;42.664;23.308;2023-08-21T04:51:43;120715.88;;;-142.62;55.49
6427;BME280;3246;42.664;23.308;2023-08-21T04:54:10;120715.88;;;-142.62;54.94
6427;BME280;3246;42.664;23.308;2023-08-21T04:56:37;120715.88;;;-142.62;54.95
6427;BME280;3246;42.664;23.308;2023-08-21T04:59:04;120715.88;;;-142.62;54.77
6427;BME280;3246;42.664;23.308;2023-08-21T05:01:31;120715.88;;;-142.62;56.10
6427;BME280;3246;42.664;23.308;2023-08-21T05:03:57;120715.88;;;-142.62;56.24
6427;BME280;3246;42.664;23.308;2023-08-21T05:06:24;120715.88;;;-142.62;54.76
6427;BME280;3246;42.664;23.308;2023-08-21T05:08:52;120715.88;;;-142.62;54.77
6427;BME280;3246;42.664;23.308;2023-08-21T05:11:19;120715.88;;;-142.62;55.02
6427;BME280;3246;42.664;23.308;2023-08-21T05:13:46;120715.88;;;-142.62;55.39
6427;BME280;3246;42.664;23.308;2023-08-21T05:16:12;120715.88;;;-142.62;55.62
6427;BME280;3246;42.664;23.308;2023-08-21T05:18:39;120715.88;;;-142.62;55.68
6427;BME280;3246;42.664;23.308;2023-08-21T05:21:06;120715.88;;;-142.62;55.86
6427;BME280;3246;42.664;23.308;2023-08-21T05:23:32;120715.88;;;-142.62;55.63
6427;BME280;3246;42.664;23.308;2023-08-21T05:26:01;120715.88;;;-142.62;55.74
6427;BME280;3246;42.664;23.308;2023-08-21T05:28:27;120715.88;;;-142.62;55.13
6427;BME280;3246;42.664;23.308;2023-08-21T05:30:54;120715.88;;;-142.62;55.15
6427;BME280;3246;42.664;23.308;2023-08-21T05:33:21;120715.88;;;-142.62;54.35
6427;BME280;3246;42.664;23.308;2023-08-21T05:35:47;120715.88;;;-142.62;54.32
6427;BME280;3246;42.664;23.308;2023-08-21T05:38:14;120715.88;;;-142.62;53.98
6427;BME280;3246;42.664;23.308;2023-08-21T05:40:41;120715.88;;;-142.62;53.76
6427;BME280;3246;42.664;23.308;2023-08-21T05:43:09;120715.88;;;-142.62;53.58
6427;BME280;3246;42.664;23.308;2023-08-21T05:45:36;120715.88;;;-142.62;53.01
6427;BME280;3246;42.664;23.308;2023-08-21T05:48:03;120715.88;;;-142.62;52.56
6427;BME280;3246;42.664;23.308;2023-08-21T05:50:31;120715.88;;;-142.62;51.99
6427;BME280;3246;42.664;23.308;2023-08-21T05:52:58;120715.88;;;-142.62;51.95
6427;BME280;3246;42.664;23.308;2023-08-21T05:55:27;120715.88;;;-142.62;51.63
6427;BME280;3246;42.664;23.308;2023-08-21T05:57:53;120715.88;;;-142.62;51.87
6427;BME280;3246;42.664;23.308;2023-08-21T06:00:21;120715.88;;;-142.62;51.67
6427;BME280;3246;42.664;23.308;2023-08-21T06:02:48;120715.88;;;-142.62;51.72
6427;BME280;3246;42.664;23.308;2023-08-21T06:05:15;120715.88;;;-142.62;51.87
6427;BME280;3246;42.664;23.308;2023-08-21T06:07:42;120715.88;;;-142.62;51.81
6427;BME280;3246;42.664;23.308;2023-08-21T06:10:09;120715.88;;;-142.62;51.78
6427;BME280;3246;42.664;23.308;2023-08-21T06:12:37;120715.88;;;-142.62;51.44
6427;BME280;3246;42.664;23.308;2023-08-21T06:15:05;120715.88;;;-142.62;51.34
6427;BME280;3246;42.664;23.308;2023-08-21T06:17:34;120715.88;;;-142.62;51.03
6427;BME280;3246;42.664;23.308;2023-08-21T06:20:01;120715.88;;;-142.62;51.25
6427;BME280;3246;42.664;23.308;2023-08-21T06:22:31;120715.88;;;-142.62;51.01
6427;BME280;3246;42.664;23.308;2023-08-21T06:24:57;120715.88;;;-142.62;51.03
6427;BME280;3246;42.664;23.308;2023-08-21T06:27:24;120715.88;;;-142.62;51.08
6427;BME280;3246;42.664;23.308;2023-08-21T06:29:51;120715.88;;;-142.62;49.73
6427;BME280;3246;42.664;23.308;2023-08-21T06:32:18;120715.88;;;-142.62;49.36
6427;BME280;3246;42.664;23.308;2023-08-21T06:34:46;120715.88;;;-142.62;49.49
6427;BME280;3246;42.664;23.308;2023-08-21T06:37:13;120715.88;;;-142.62;49.52
6427;BME280;3246;42.664;23.308;2023-08-21T06:39:40;120715.88;;;-142.62;49.17
6427;BME280;3246;42.664;23.308;2023-08-21T06:42:07;120715.88;;;-142.62;49.33
6427;BME280;3246;42.664;23.308;2023-08-21T06:44:33;120715.88;;;-142.62;49.18
6427;BME280;3246;42.664;23.308;2023-08-21T06:47:00;120715.88;;;-142.62;49.48
6427;BME280;3246;42.664;23.308;2023-08-21T06:49:27;120715.88;;;-142.62;50.02
6427;BME280;3246;42.664;23.308;2023-08-21T06:51:55;120715.88;;;-142.62;49.11
6427;BME280;3246;42.664;23.308;2023-08-21T06:54:22;120715.88;;;-142.62;48.87
6427;BME280;3246;42.664;23.308;2023-08-21T06:56:49;120715.88;;;-142.62;48.75
6427;BME280;3246;42.664;23.308;2023-08-21T06:59:15;120715.88;;;-142.62;47.92
6427;BME280;3246;42.664;23.308;2023-08-21T07:01:42;120715.88;;;-142.62;47.76
6427;BME280;3246;42.664;23.308;2023-08-21T07:04:09;120715.88;;;-142.62;47.59
6427;BME280;3246;42.664;23.308;2023-08-21T07:06:36;120715.88;;;-142.62;47.37
6427;BME280;3246;42.664;23.308;2023-08-21T07:09:04;120715.88;;;-142.62;47.52
6427;BME280;3246;42.664;23.308;2023-08-21T07:11:31;120715.88;;;-142.62;47.24
6427;BME280;3246;42.664;23.308;2023-08-21T07:13:57;120715.88;;;-142.62;46.90
6427;BME280;3246;42.664;23.308;2023-08-21T07:16:24;120715.88;;;-142.62;46.92
6427;BME280;3246;42.664;23.308;2023-08-21T07:18:52;120715.88;;;-142.62;46.95
6427;BME280;3246;42.664;23.308;2023-08-21T07:21:19;120715.88;;;-142.62;46.21
6427;BME280;3246;42.664;23.308;2023-08-21T07:23:45;120715.88;;;-142.62;45.87
6427;BME280;3246;42.664;23.308;2023-08-21T07:26:14;120715.88;;;-142.62;45.92
6427;BME280;3246;42.664;23.308;2023-08-21T07:28:40;120715.88;;;-142.62;46.36
6427;BME280;3246;42.664;23.308;2023-08-21T07:31:07;120715.88;;;-142.62;45.98
6427;BME280;3246;42.664;23.308;2023-08-21T07:33:34;120715.88;;;-142.62;45.72
6427;BME280;3246;42.664;23.308;2023-08-21T07:36:02;120715.88;;;-142.62;44.67
6427;BME280;3246;42.664;23.308;2023-08-21T07:38:30;120715.88;;;-142.62;44.80
6427;BME280;3246;42.664;23.308;2023-08-21T07:41:04;120715.88;;;-142.62;44.34
6427;BME280;3246;42.664;23.308;2023-08-21T07:43:33;120715.88;;;-142.62;43.90
6427;BME280;3246;42.664;23.308;2023-08-21T07:46:02;120715.88;;;-142.62;43.52
6427;BME280;3246;42.664;23.308;2023-08-21T07:48:29;120715.88;;;-142.62;43.81
6427;BME280;3246;42.664;23.308;2023-08-21T07:50:56;120715.88;;;-142.62;43.47
6427;BME280;3246;42.664;23.308;2023-08-21T07:53:23;120715.88;;;-142.62;43.83
6427;BME280;3246;42.664;23.308;2023-08-21T07:55:50;120715.88;;;-142.62;43.33
6427;BME280;3246;42.664;23.308;2023-08-21T07:58:17;120715.88;;;-142.62;42.94
6427;BME280;3246;42.664;23.308;2023-08-21T08:00:45;120715.88;;;-142.62;42.83
6427;BME280;3246;42.664;23.308;2023-08-21T08:03:13;120715.88;;;-142.62;42.61
6427;BME280;3246;42.664;23.308;2023-08-21T08:05:40;120715.88;;;-142.62;42.65
6427;BME280;3246;42.664;23.308;2023-08-21T08:08:07;120715.88;;;-142.62;41.93
6427;BME280;3246;42.664;23.308;2023-08-21T08:10:37;120715.88;;;-142.62;42.11
6427;BME280;3246;42.664;23.308;2023-08-21T08:13:04;120715.88;;;-142.62;41.95
6427;BME280;3246;42.664;23.308;2023-08-21T08:15:31;120715.88;;;-142.62;41.49
6427;BME280;3246;42.664;23.308;2023-08-21T08:18:01;120715.88;;;-142.62;41.79
6427;BME280;3246;42.664;23.308;2023-08-21T08:20:28;120715.88;;;-142.62;41.21
6427;BME280;3246;42.664;23.308;2023-08-21T08:22:54;120715.88;;;-142.62;41.11
6427;BME280;3246;42.664;23.308;2023-08-21T08:25:21;120715.88;;;-142.62;41.11
6427;BME280;3246;42.664;23.308;2023-08-21T08:27:48;120715.88;;;-142.62;41.14
6427;BME280;3246;42.664;23.308;2023-08-21T08:30:15;120715.88;;;-142.62;41.29
6427;BME280;3246;42.664;23.308;2023-08-21T08:32:42;120715.88;;;-142.62;40.64
6427;BME280;3246;42.664;23.308;2023-08-21T08:35:12;120715.88;;;-142.62;40.21
6427;BME280;3246;42.664;23.308;2023-08-21T08:37:40;120715.88;;;-142.62;39.99
6427;BME280;3246;42.664;23.308;2023-08-21T08:40:07;120715.88;;;-142.62;40.00
6427;BME280;3246;42.664;23.308;2023-08-21T08:42:34;120715.88;;;-142.62;40.25
6427;BME280;3246;42.664;23.308;2023-08-21T08:45:03;120715.88;;;-142.62;39.65
6427;BME280;3246;42.664;23.308;2023-08-21T08:47:31;120715.88;;;-142.62;39.21
6427;BME280;3246;42.664;23.308;2023-08-21T08:49:59;120715.88;;;-142.62;39.17
6427;BME280;3246;42.664;23.308;2023-08-21T08:52:31;120715.88;;;-142.62;38.87
6427;BME280;3246;42.664;23.308;2023-08-21T08:55:00;120715.88;;;-142.62;38.99
6427;BME280;3246;42.664;23.308;2023-08-21T08:57:27;120715.88;;;-142.62;39.04
6427;BME280;3246;42.664;23.308;2023-08-21T08:59:54;120715.88;;;-142.62;38.85
6427;BME280;3246;42.664;23.308;2023-08-21T09:02:21;120715.88;;;-142.62;38.44
6427;BME280;3246;42.664;23.308;2023-08-21T09:04:48;120715.88;;;-142.62;38.99
6427;BME280;3246;42.664;23.308;2023-08-21T09:07:16;120715.88;;;-142.62;38.88
6427;BME280;3246;42.664;23.308;2023-08-21T09:09:47;120715.88;;;-142.62;37.81
6427;BME280;3246;42.664;23.308;2023-08-21T09:12:15;120715.88;;;-142.62;38.00
6427;BME280;3246;42.664;23.308;2023-08-21T09:14:44;120715.88;;;-142.62;37.49
6427;BME280;3246;42.664;23.308;2023-08-21T09:17:11;120715.88;;;-142.62;37.22
6427;BME280;3246;42.664;23.308;2023-08-21T09:19:38;120715.88;;;-142.62;37.71
6427;BME280;3246;42.664;23.308;2023-08-21T09:22:08;120715.88;;;-142.62;37.47
6427;BME280;3246;42.664;23.308;2023-08-21T09:24:35;120715.88;;;-142.62;37.01
6427;BME280;3246;42.664;23.308;2023-08-21T09:27:04;120715.88;;;-142.62;37.79
6427;BME280;3246;42.664;23.308;2023-08-21T09:29:38;120715.88;;;-142.62;37.74
6427;BME280;3246;42.664;23.308;2023-08-21T09:32:05;120715.88;;;-142.62;38.40
6427;BME280;3246;42.664;23.308;2023-08-21T09:34:34;120715.88;;;-142.62;36.67
6427;BME280;3246;42.664;23.308;2023-08-21T09:37:05;120715.88;;;-142.62;37.09
6427;BME280;3246;42.664;23.308;2023-08-21T09:39:33;120715.88;;;-142.62;36.92
6427;BME280;3246;42.664;23.308;2023-08-21T09:42:00;120715.88;;;-142.62;37.31
6427;BME280;3246;42.664;23.308;2023-08-21T09:44:29;120715.88;;;-142.62;37.16
6427;BME280;3246;42.664;23.308;2023-08-21T09:47:01;120715.88;;;-142.62;36.04
6427;BME280;3246;42.664;23.308;2023-08-21T09:49:27;120715.88;;;-142.62;36.47
6427;BME280;3246;42.664;23.308;2023-08-21T09:51:55;120715.88;;;-142.62;37.17
6427;BME280;3246;42.664;23.308;2023-08-21T09:54:22;120715.88;;;-142.62;35.97
6427;BME280;3246;42.664;23.308;2023-08-21T09:56:50;120715.88;;;-142.62;35.65
6427;BME280;3246;42.664;23.308;2023-08-21T09:59:17;120715.88;;;-142.62;35.38
6427;BME280;3246;42.664;23.308;2023-08-21T10:01:47;120715.88;;;-142.62;34.87
6427;BME280;3246;42.664;23.308;2023-08-21T10:04:17;120715.88;;;-142.62;34.78
6427;BME280;3246;42.664;23.308;2023-08-21T10:06:45;120715.88;;;-142.62;34.29
6427;BME280;3246;42.664;23.308;2023-08-21T10:09:14;120715.88;;;-142.62;34.83
6427;BME280;3246;42.664;23.308;2023-08-21T10:11:42;120715.88;;;-142.62;34.73
6427;BME280;3246;42.664;23.308;2023-08-21T10:14:09;120715.88;;;-142.62;34.13
6427;BME280;3246;42.664;23.308;2023-08-21T10:16:37;120715.88;;;-142.62;34.30
6427;BME280;3246;42.664;23.308;2023-08-21T10:19:05;120715.88;;;-142.62;34.36
6427;BME280;3246;42.664;23.308;2023-08-21T10:21:34;120715.88;;;-142.62;34.15
6427;BME280;3246;42.664;23.308;2023-08-21T10:24:01;120715.88;;;-142.62;34.48
6427;BME280;3246;42.664;23.308;2023-08-21T10:26:28;120715.88;;;-142.62;33.99
6427;BME280;3246;42.664;23.308;2023-08-21T10:28:58;120715.88;;;-142.62;34.04
6427;BME280;3246;42.664;23.308;2023-08-21T10:31:32;120715.88;;;-142.62;33.55
6427;BME280;3246;42.664;23.308;2023-08-21T10:34:00;120715.88;;;-142.62;33.81
6427;BME280;3246;42.664;23.308;2023-08-21T10:37:02;120715.88;;;-142.62;33.73
6427;BME280;3246;42.664;23.308;2023-08-21T10:39:29;120715.88;;;-142.62;33.00
6427;BME280;3246;42.664;23.308;2023-08-21T10:42:01;120715.88;;;-142.62;33.22
6427;BME280;3246;42.664;23.308;2023-08-21T10:44:36;120715.88;;;-142.62;34.20
6427;BME280;3246;42.664;23.308;2023-08-21T10:47:16;120715.88;;;-142.62;33.22
6427;BME280;3246;42.664;23.308;2023-08-21T10:49:45;120715.88;;;-142.62;33.88
6427;BME280;3246;42.664;23.308;2023-08-21T10:52:14;120715.88;;;-142.62;32.90
6427;BME280;3246;42.664;23.308;2023-08-21T10:54:45;120715.88;;;-142.62;32.85
6427;BME280;3246;42.664;23.308;2023-08-21T10:57:12;120715.88;;;-142.62;32.54
6427;BME280;3246;42.664;23.308;2023-08-21T10:59:49;120715.88;;;-142.62;32.97
6427;BME280;3246;42.664;23.308;2023-08-21T11:02:16;120715.88;;;-142.62;33.30
6427;BME280;3246;42.664;23.308;2023-08-21T11:04:43;120715.88;;;-142.62;33.03
6427;BME280;3246;42.664;23.308;2023-08-21T11:07:10;120715.88;;;-142.62;32.63
6427;BME280;3246;42.664;23.308;2023-08-21T11:09:39;120715.88;;;-142.62;31.93
6427;BME280;3246;42.664;23.308;2023-08-21T11:12:08;120715.88;;;-142.62;31.04
6427;BME280;3246;42.664;23.308;2023-08-21T11:14:35;120715.88;;;-142.62;30.41
6427;BME280;3246;42.664;23.308;2023-08-21T11:17:02;120715.88;;;-142.62;30.65
6427;BME280;3246;42.664;23.308;2023-08-21T11:19:30;120715.88;;;-142.62;31.59
6427;BME280;3246;42.664;23.308;2023-08-21T11:21:57;120715.88;;;-142.62;30.47
6427;BME280;3246;42.664;23.308;2023-08-21T11:24:30;120715.88;;;-142.62;30.84
6427;BME280;3246;42.664;23.308;2023-08-21T11:26:58;120715.88;;;-142.62;31.19
6427;BME280;3246;42.664;23.308;2023-08-21T11:29:25;120715.88;;;-142.62;31.12
6427;BME280;3246;42.664;23.308;2023-08-21T11:31:52;120715.88;;;-142.62;30.59
6427;BME280;3246;42.664;23.308;2023-08-21T11:34:20;120715.88;;;-142.62;31.17
6427;BME280;3246;42.664;23.308;2023-08-21T11:36:47;120715.88;;;-142.62;31.45
6427;BME280;3246;42.664;23.308;2023-08-21T11:39:14;120715.88;;;-142.62;30.87
6427;BME280;3246;42.664;23.308;2023-08-21T11:41:54;120715.88;;;-142.62;31.18
6427;BME280;3246;42.664;23.308;2023-08-21T11:44:22;120715.88;;;-142.62;30.71
6427;BME280;3246;42.664;23.308;2023-08-21T11:46:51;120715.88;;;-142.62;30.95
6427;BME280;3246;42.664;23.308;2023-08-21T11:49:18;120715.88;;;-142.62;31.13
6427;BME280;3246;42.664;23.308;2023-08-21T11:51:48;120715.88;;;-142.62;30.52
6427;BME280;3246;42.664;23.308;2023-08-21T11:54:17;120715.88;;;-142.62;30.27
6427;BME280;3246;42.664;23.308;2023-08-21T11:56:43;120715.88;;;-142.62;30.03
6427;BME280;3246;42.664;23.308;2023-08-21T11:59:10;120715.88;;;-142.62;29.85
6427;BME280;3246;42.664;23.308;2023-08-21T12:01:39;120715.88;;;-142.62;30.05
6427;BME280;3246;42.664;23.308;2023-08-21T12:04:14;120715.88;;;-142.62;30.01
6427;BME280;3246;42.664;23.308;2023-08-21T12:06:43;120715.88;;;-142.62;30.49
6427;BME280;3246;42.664;23.308;2023-08-21T12:09:10;120715.88;;;-142.62;29.64
6427;BME280;3246;42.664;23.308;2023-08-21T12:11:37;120715.88;;;-142.62;29.85
6427;BME280;3246;42.664;23.308;2023-08-21T12:14:04;120715.88;;;-142.62;29.96
6427;BME280;3246;42.664;23.308;2023-08-21T12:16:31;120715.88;;;-142.62;29.29
6427;BME280;3246;42.664;23.308;2023-08-21T12:18:59;120715.88;;;-142.62;30.17
6427;BME280;3246;42.664;23.308;2023-08-21T12:21:27;120715.88;;;-142.62;30.27
6427;BME280;3246;42.664;23.308;2023-08-21T12:23:53;120715.88;;;-142.62;30.04
6427;BME280;3246;42.664;23.308;2023-08-21T12:26:20;120715.88;;;-142.62;29.52
6427;BME280;3246;42.664;23.308;2023-08-21T12:28:47;120715.88;;;-142.62;30.43
6427;BME280;3246;42.664;23.308;2023-08-21T12:31:14;120715.88;;;-142.62;30.16
6427;BME280;3246;42.664;23.308;2023-08-21T12:33:41;120715.88;;;-142.62;30.36
6427;BME280;3246;42.664;23.308;2023-08-21T12:36:09;120715.88;;;-142.62;29.64
6427;BME280;3246;42.664;23.308;2023-08-21T12:38:36;120715.88;;;-142.62;30.04
6427;BME280;3246;42.664;23.308;2023-08-21T12:41:03;120715.88;;;-142.62;29.66
6427;BME280;3246;42.664;23.308;2023-08-21T12:43:30;120715.88;;;-142.62;29.72